Estación Meteorológica Peña el Pijo (Robertgarden) [ 01/30/23 14:36:45 CET ]

Fecha Hora Presion(HPa) Temp (°C) Humedad % Rocio (°C) Viento ( m/s) Direccion Lluvia 1Hora(mm) Lluvia 24H(mm) LLuvia Total(mm)
2010-Sep-07 01:01:14 1007.900 15.8 58 7.6         156.43
2010-Sep-07 02:01:13 1007.400 16.8 54 7.4         156.43
2010-Sep-07 03:01:19 1007.100 15.6 60 7.9         156.43
2010-Sep-07 04:01:18 1006.700 14.6 65 8.1         156.43
2010-Sep-07 05:01:18 1005.800 15.1 59 7.1         156.43
2010-Sep-07 06:01:18 1005.500 16.2 53 6.6         156.43
2010-Sep-07 07:01:17 1005.300 17.4 53 7.7         156.43
2010-Sep-07 08:01:14 1005.300 16.4 55 7.3         156.43
2010-Sep-07 09:01:12 1005.000 18.5 56 9.5         156.43
2010-Sep-07 10:01:15 1005.000 21.9 47 10.0         156.43
2010-Sep-07 11:01:12 1005.500 23.8 44 10.8         156.43
2010-Sep-07 12:01:17 1006.300 24.5 41 10.4         156.43
2010-Sep-07 13:01:15 1006.200 23.6 44 10.6         156.43
2010-Sep-07 14:01:14 1005.400 24.1 42 10.4         156.43
2010-Sep-07 15:01:17 1005.300 23.1 43 9.8         156.43
2010-Sep-07 16:01:13 1004.900 24.2 38 8.9 0.9 S     156.43
2010-Sep-07 17:01:30 1004.500 24.9 38 9.6         156.43
2010-Sep-07 18:01:27 1004.900 23.9 36 7.8         156.43
2010-Sep-07 19:01:36 1005.100 22.2 38 7.2         156.43
2010-Sep-07 20:01:34 1005.000 20.1 43 7.1 1.9 SSW     156.43
2010-Sep-07 21:01:14 1005.500 19.4 45 7.1         156.43
2010-Sep-07 22:01:15 1006.200 19.2 45 6.9         156.43
2010-Sep-07 23:01:15 1006.600 18.8 47 7.2         156.43

Temperatura Máxima:24°    Temperatura Mínima:14°
Presión Máxima:1007.900 Hpa    Presión Mínima:1004.500 Hpa


Volver